Time;durP1;ratioP1;P1;durP2;ratioP2;P2;SDS_P1;SDS_P2;PMS_P1;PMS_P2;Temp;Humidity;BMP_temperature;BMP_pressure;BME280_temperature;BME280_humidity;BME280_pressure;Samples;Min_cycle;Max_cycle;Signal;HPM_P1;HPM_P2
2024/03/02 00:01:22;;;;;;;0.82;0.50;;;;;;;7.72;100.00;99820.16;5249499;28;20016;-74
2024/03/02 00:03:53;;;;;;;1.70;0.50;;;;;;;7.69;100.00;99818.66;5251238;28;20032;-75
2024/03/02 00:06:23;;;;;;;3.72;0.85;;;;;;;7.71;100.00;99818.50;5250530;28;20017;-74
2024/03/02 00:08:58;;;;;;;0.50;0.40;;;;;;;7.78;100.00;99819.44;5251925;28;20032;-75
2024/03/02 00:11:28;;;;;;;1.55;0.40;;;;;;;7.75;100.00;99817.97;5252898;28;20028;-74
2024/03/02 00:14:00;;;;;;;3.33;0.75;;;;;;;7.65;100.00;99805.84;5259100;28;20477;-74
2024/03/02 00:16:31;;;;;;;2.60;0.60;;;;;;;7.79;100.00;99821.13;5255050;28;20036;-74
2024/03/02 00:19:03;;;;;;;1.15;0.60;;;;;;;7.81;100.00;99812.94;5258093;28;20385;-74
2024/03/02 00:21:35;;;;;;;0.57;0.50;;;;;;;7.78;100.00;99830.97;5249337;28;20020;-74
2024/03/02 00:24:21;;;;;;;1.02;0.40;;;;;;;7.71;100.00;99826.50;5251886;28;20027;-74
2024/03/02 00:26:52;;;;;;;0.68;0.40;;;;;;;7.75;100.00;99823.31;5257462;28;20024;-74
2024/03/02 00:29:22;;;;;;;1.60;0.55;;;;;;;7.76;100.00;99818.78;5252531;28;20492;-74
2024/03/02 00:31:54;;;;;;;1.33;0.75;;;;;;;7.64;100.00;99818.34;5257222;28;20051;-74
2024/03/02 00:34:25;;;;;;;0.52;0.40;;;;;;;7.57;100.00;99828.03;5251773;28;20017;-74
2024/03/02 00:36:59;;;;;;;0.63;0.47;;;;;;;7.66;100.00;99819.00;5255429;28;20080;-74
2024/03/02 00:39:30;;;;;;;4.05;0.50;;;;;;;7.69;100.00;99840.03;5249156;28;20024;-74
2024/03/02 00:42:00;;;;;;;1.27;0.50;;;;;;;7.63;100.00;99837.19;5257744;28;20038;-72
2024/03/02 00:44:35;;;;;;;2.78;0.43;;;;;;;7.63;100.00;99839.84;5253062;28;20020;-73
2024/03/02 00:47:07;;;;;;;1.20;0.40;;;;;;;7.67;100.00;99823.31;5253956;28;20657;-74
2024/03/02 00:49:37;;;;;;;2.42;0.60;;;;;;;7.54;100.00;99836.41;5254112;28;20035;-74
2024/03/02 00:52:08;;;;;;;0.50;0.40;;;;;;;7.47;100.00;99849.56;5258272;28;20024;-74
2024/03/02 00:54:38;;;;;;;6.22;0.80;;;;;;;7.51;100.00;99848.25;5252401;28;20067;-73
2024/03/02 00:57:12;;;;;;;1.60;0.45;;;;;;;7.47;100.00;99833.56;5255376;28;20048;-74
2024/03/02 00:59:42;;;;;;;0.82;0.50;;;;;;;7.47;100.00;99827.41;5251466;28;20028;-74
2024/03/02 01:02:13;;;;;;;0.80;0.40;;;;;;;7.51;100.00;99823.38;5252595;28;20047;-75
2024/03/02 01:04:43;;;;;;;1.30;0.60;;;;;;;7.48;100.00;99827.25;5255633;28;20025;-73
2024/03/02 01:07:13;;;;;;;1.65;0.57;;;;;;;7.45;100.00;99837.41;5253937;28;20103;-74
2024/03/02 01:09:44;;;;;;;1.63;0.50;;;;;;;7.39;100.00;99867.47;5255227;28;20410;-74
2024/03/02 01:12:15;;;;;;;1.00;0.45;;;;;;;7.46;100.00;99863.09;5251761;28;20021;-75
2024/03/02 01:14:45;;;;;;;2.13;0.50;;;;;;;7.44;100.00;99831.25;5257467;28;20047;-73
2024/03/02 01:17:16;;;;;;;0.80;0.68;;;;;;;7.43;100.00;99826.94;5251818;28;20008;-74
2024/03/02 01:19:46;;;;;;;2.22;0.30;;;;;;;7.33;100.00;99844.97;5256005;28;20508;-74
2024/03/02 01:22:19;;;;;;;1.10;0.40;;;;;;;7.41;100.00;99850.25;5253224;28;20063;-74
2024/03/02 01:24:50;;;;;;;2.45;0.55;;;;;;;7.43;100.00;99842.94;5257203;28;20478;-74
2024/03/02 01:27:20;;;;;;;1.30;0.50;;;;;;;7.45;100.00;99861.44;5254964;28;20035;-74
2024/03/02 01:29:51;;;;;;;0.68;0.30;;;;;;;7.29;100.00;99848.97;5254874;28;20024;-74
2024/03/02 01:32:21;;;;;;;0.68;0.40;;;;;;;7.40;100.00;99858.44;5255204;28;20033;-74
2024/03/02 01:34:52;;;;;;;1.13;0.43;;;;;;;7.44;100.00;99867.78;5253037;28;20027;-73
2024/03/02 01:37:22;;;;;;;1.52;0.40;;;;;;;7.39;100.00;99868.28;5251925;28;20017;-73
2024/03/02 01:39:53;;;;;;;1.83;0.50;;;;;;;7.36;100.00;99847.28;5256253;28;20449;-74
2024/03/02 01:42:23;;;;;;;1.33;0.60;;;;;;;7.51;100.00;99858.91;5249436;28;20526;-75
2024/03/02 01:44:53;;;;;;;3.10;0.85;;;;;;;7.44;100.00;99857.13;5256696;28;20505;-74
2024/03/02 01:47:24;;;;;;;3.40;0.70;;;;;;;7.48;100.00;99866.41;5250905;28;20527;-72
2024/03/02 01:49:55;;;;;;;3.05;0.90;;;;;;;7.52;100.00;99863.25;5256052;28;20131;-74
2024/03/02 01:52:26;;;;;;;1.00;0.55;;;;;;;7.51;100.00;99866.09;5254188;28;20039;-74
2024/03/02 01:54:56;;;;;;;1.50;0.52;;;;;;;7.58;100.00;99859.09;5253181;28;20019;-74
2024/03/02 01:57:27;;;;;;;3.50;0.60;;;;;;;7.38;100.00;99866.63;5252315;28;20016;-74
2024/03/02 01:59:58;;;;;;;1.58;0.90;;;;;;;7.38;100.00;99860.44;5253450;28;20032;-74
2024/03/02 02:02:28;;;;;;;1.38;0.50;;;;;;;7.24;100.00;99861.97;5250184;28;20051;-74
2024/03/02 02:04:59;;;;;;;0.95;0.40;;;;;;;7.27;100.00;99865.13;5250063;28;20036;-74
2024/03/02 02:07:30;;;;;;;2.72;0.60;;;;;;;7.27;100.00;99859.78;5250811;28;20556;-74
2024/03/02 02:10:03;;;;;;;1.67;0.40;;;;;;;7.21;100.00;99870.31;5256748;28;20481;-73
2024/03/02 02:12:42;;;;;;;0.63;0.35;;;;;;;7.20;100.00;99872.16;5251229;28;20025;-74
2024/03/02 02:15:23;;;;;;;2.42;0.50;;;;;;;7.40;100.00;99861.94;5253237;28;20021;-74
2024/03/02 02:17:55;;;;;;;1.30;0.40;;;;;;;7.40;100.00;99850.44;5256314;28;20077;-74
2024/03/02 02:20:25;;;;;;;0.82;0.30;;;;;;;7.28;100.00;99852.63;5249890;28;20033;-74
2024/03/02 02:22:59;;;;;;;1.33;0.45;;;;;;;7.42;100.00;99854.59;5256795;28;20031;-75
2024/03/02 02:25:30;;;;;;;3.38;0.52;;;;;;;7.56;100.00;99855.72;5251471;28;20052;-74
2024/03/02 02:28:02;;;;;;;4.70;0.50;;;;;;;7.42;100.00;99859.94;5254481;28;20648;-74
2024/03/02 02:30:33;;;;;;;1.10;0.30;;;;;;;7.51;100.00;99856.25;5253075;28;20158;-74
2024/03/02 02:33:03;;;;;;;0.35;0.25;;;;;;;7.55;100.00;99861.25;5251806;28;20028;-74
2024/03/02 02:35:34;;;;;;;2.97;0.30;;;;;;;7.46;100.00;99858.59;5253664;28;20023;-74
2024/03/02 02:38:04;;;;;;;1.38;0.28;;;;;;;7.46;100.00;99855.09;5254678;28;20043;-72
2024/03/02 02:40:35;;;;;;;1.02;0.32;;;;;;;7.63;100.00;99854.06;5253679;28;20029;-73
2024/03/02 02:43:06;;;;;;;1.35;0.25;;;;;;;7.59;100.00;99858.06;5253203;28;20031;-74
2024/03/02 02:45:37;;;;;;;2.83;0.80;;;;;;;7.59;100.00;99851.91;5252478;28;20035;-73
2024/03/02 02:48:07;;;;;;;1.48;0.28;;;;;;;7.58;100.00;99850.22;5252314;28;20024;-74
2024/03/02 02:50:38;;;;;;;1.33;0.80;;;;;;;7.69;100.00;99850.69;5251311;28;20024;-74
2024/03/02 02:53:11;;;;;;;1.75;0.40;;;;;;;7.72;100.00;99857.53;5255951;28;20034;-73
2024/03/02 02:55:43;;;;;;;1.73;0.35;;;;;;;7.61;100.00;99857.91;5248860;28;20444;-74
2024/03/02 02:58:14;;;;;;;1.48;0.43;;;;;;;7.59;100.00;99858.06;5253940;28;20466;-74
2024/03/02 03:00:45;;;;;;;3.95;0.35;;;;;;;7.58;100.00;99850.22;5250443;28;20033;-74
2024/03/02 03:03:16;;;;;;;4.95;0.63;;;;;;;7.58;100.00;99855.56;5250064;28;20019;-74
2024/03/02 03:05:48;;;;;;;2.60;0.50;;;;;;;7.67;100.00;99857.19;5254267;28;20027;-74
2024/03/02 03:08:26;;;;;;;2.00;0.52;;;;;;;7.57;100.00;99859.22;5249755;28;20027;-74
2024/03/02 03:10:57;;;;;;;1.05;0.50;;;;;;;7.56;100.00;99847.72;5254940;28;20020;-74
2024/03/02 03:13:27;;;;;;;1.77;0.65;;;;;;;7.61;100.00;99852.56;5248469;28;20028;-74
2024/03/02 03:15:58;;;;;;;1.85;0.75;;;;;;;7.59;100.00;99847.41;5253095;28;20102;-72
2024/03/02 03:18:29;;;;;;;5.05;0.52;;;;;;;7.52;100.00;99844.56;5252802;28;20020;-73
2024/03/02 03:20:59;;;;;;;1.67;0.40;;;;;;;7.41;100.00;99852.94;5244259;28;20110;-74
2024/03/02 03:23:30;;;;;;;5.00;0.50;;;;;;;7.46;100.00;99845.25;5250490;28;20047;-72
2024/03/02 03:26:00;;;;;;;1.77;0.43;;;;;;;7.52;100.00;99843.72;5251277;28;20073;-71
2024/03/02 03:28:38;;;;;;;1.52;0.38;;;;;;;7.29;100.00;99837.47;5250296;28;20025;-72
2024/03/02 03:31:11;;;;;;;6.55;0.60;;;;;;;7.36;100.00;99849.94;5245867;28;20035;-74
2024/03/02 03:33:42;;;;;;;2.15;0.60;;;;;;;7.20;100.00;99839.31;5247444;28;20024;-74
2024/03/02 03:36:13;;;;;;;1.95;0.50;;;;;;;7.17;100.00;99836.97;5242011;28;20112;-74
2024/03/02 03:38:43;;;;;;;4.60;0.85;;;;;;;7.20;100.00;99840.13;5242832;28;20218;-74
2024/03/02 03:41:14;;;;;;;3.42;0.70;;;;;;;7.08;100.00;99854.84;5242623;28;20065;-74
2024/03/02 03:43:44;;;;;;;1.90;0.47;;;;;;;7.08;100.00;99852.16;5242823;28;20222;-74
2024/03/02 03:46:15;;;;;;;2.85;0.60;;;;;;;7.01;100.00;99846.66;5246795;28;20107;-74
2024/03/02 03:48:45;;;;;;;4.32;0.50;;;;;;;6.95;100.00;99852.66;5242431;28;20627;-74
2024/03/02 03:51:16;;;;;;;6.50;0.50;;;;;;;6.97;100.00;99852.47;5243040;28;20128;-74
2024/03/02 03:53:46;;;;;;;1.88;0.43;;;;;;;6.90;100.00;99852.31;5248462;28;20067;-73
2024/03/02 03:56:17;;;;;;;5.97;0.70;;;;;;;6.81;100.00;99855.97;5242932;28;20875;-74
2024/03/02 03:58:47;;;;;;;2.85;0.60;;;;;;;6.74;100.00;99853.16;5242630;28;20410;-74
2024/03/02 04:01:18;;;;;;;4.50;0.43;;;;;;;6.72;100.00;99863.13;5247478;28;20164;-74
2024/03/02 04:03:49;;;;;;;4.60;0.80;;;;;;;6.62;100.00;99853.63;5245796;28;20035;-74
2024/03/02 04:06:19;;;;;;;5.95;0.63;;;;;;;6.56;100.00;99863.13;5242806;28;20016;-74
2024/03/02 04:08:50;;;;;;;0.45;0.30;;;;;;;6.61;100.00;99871.44;5243074;28;20035;-74
2024/03/02 04:11:20;;;;;;;2.00;0.40;;;;;;;6.52;100.00;99872.44;5246247;28;20091;-74
2024/03/02 04:13:51;;;;;;;0.90;0.47;;;;;;;6.49;100.00;99873.59;5243130;28;20024;-74
2024/03/02 04:16:21;;;;;;;4.30;0.60;;;;;;;6.40;100.00;99873.75;5242196;28;20090;-74
2024/03/02 04:18:51;;;;;;;3.55;0.60;;;;;;;6.47;100.00;99872.91;5247246;28;20461;-74
2024/03/02 04:21:22;;;;;;;4.97;0.55;;;;;;;6.56;100.00;99880.94;5243495;28;20024;-73
2024/03/02 04:23:57;;;;;;;1.50;0.57;;;;;;;6.51;100.00;99875.28;5245973;28;20039;-73
2024/03/02 04:26:27;;;;;;;3.60;1.60;;;;;;;6.53;100.00;99870.63;5247214;28;20020;-74
2024/03/02 04:28:58;;;;;;;1.65;0.63;;;;;;;6.59;100.00;99877.97;5247492;28;20035;-74
2024/03/02 04:31:28;;;;;;;3.42;0.75;;;;;;;6.57;100.00;99872.78;5239799;28;20405;-74
2024/03/02 04:33:59;;;;;;;4.32;0.63;;;;;;;6.56;100.00;99871.13;5242875;28;20024;-74
2024/03/02 04:36:29;;;;;;;2.08;0.60;;;;;;;6.56;100.00;99876.44;5241601;28;20363;-73
2024/03/02 04:39:00;;;;;;;0.90;0.38;;;;;;;6.48;100.00;99879.94;5273737;28;20027;-73
2024/03/02 04:41:30;;;;;;;3.47;0.50;;;;;;;6.39;100.00;99880.91;5235169;28;20024;-74
2024/03/02 04:44:01;;;;;;;2.28;0.52;;;;;;;6.31;100.00;99875.56;5245775;28;20028;-73
2024/03/02 04:46:32;;;;;;;4.03;0.63;;;;;;;6.25;100.00;99880.72;5239711;28;20017;-74
2024/03/02 04:49:02;;;;;;;2.15;0.40;;;;;;;6.26;100.00;99875.22;5247967;28;20374;-74
2024/03/02 04:51:33;;;;;;;2.85;0.50;;;;;;;6.28;100.00;99885.72;5251695;28;20504;-74
2024/03/02 04:54:03;;;;;;;3.80;0.52;;;;;;;6.27;100.00;99894.69;5255123;28;20033;-73
2024/03/02 04:56:44;;;;;;;3.22;0.70;;;;;;;6.27;100.00;99892.84;5256908;28;20359;-74
2024/03/02 04:59:15;;;;;;;3.45;0.60;;;;;;;6.21;100.00;99882.84;5247267;28;20031;-74
2024/03/02 05:01:47;;;;;;;3.70;1.00;;;;;;;6.14;100.00;99900.47;5264698;28;20111;-74
2024/03/02 05:04:17;;;;;;;1.92;0.85;;;;;;;6.07;100.00;99897.59;5245085;28;20024;-74
2024/03/02 05:06:52;;;;;;;8.10;1.58;;;;;;;5.98;100.00;99903.91;5246516;28;20047;-74
2024/03/02 05:09:22;;;;;;;1.40;0.70;;;;;;;5.94;100.00;99902.56;5246480;28;20028;-74
2024/03/02 05:12:09;;;;;;;3.83;0.43;;;;;;;5.94;100.00;99906.06;5253685;28;20306;-74
2024/03/02 05:14:40;;;;;;;3.58;0.60;;;;;;;5.91;100.00;99906.34;5244050;28;20048;-74
2024/03/02 05:17:10;;;;;;;2.47;0.63;;;;;;;5.91;100.00;99908.16;5252870;28;20012;-74
2024/03/02 05:19:41;;;;;;;4.03;0.70;;;;;;;5.84;100.00;99910.63;5247660;28;20174;-74
2024/03/02 05:22:11;;;;;;;4.07;0.68;;;;;;;5.81;100.00;99908.28;5250156;28;20111;-74
2024/03/02 05:24:42;;;;;;;3.40;0.60;;;;;;;5.80;100.00;99911.09;5246292;28;20028;-73
2024/03/02 05:27:12;;;;;;;3.10;1.08;;;;;;;5.87;100.00;99917.44;5252681;28;20025;-74
2024/03/02 05:29:43;;;;;;;3.85;0.90;;;;;;;5.85;100.00;99909.63;5255721;28;20120;-74
2024/03/02 05:32:13;;;;;;;3.72;0.55;;;;;;;5.84;100.00;99918.63;5251151;28;20493;-74
2024/03/02 05:34:44;;;;;;;1.77;0.70;;;;;;;5.82;100.00;99917.91;5240018;28;20490;-73
2024/03/02 05:37:14;;;;;;;2.30;0.55;;;;;;;5.76;100.00;99921.22;5242970;28;20021;-73
2024/03/02 05:39:45;;;;;;;6.55;0.90;;;;;;;5.76;100.00;99920.38;5251384;28;20029;-74
2024/03/02 05:42:16;;;;;;;5.10;0.60;;;;;;;5.78;100.00;99919.25;5248695;28;20026;-74
2024/03/02 05:44:47;;;;;;;1.48;0.68;;;;;;;5.77;100.00;99911.41;5250651;28;20032;-73
2024/03/02 05:47:18;;;;;;;3.97;0.68;;;;;;;5.75;100.00;99908.06;5248933;28;20036;-73
2024/03/02 05:49:49;;;;;;;6.18;0.90;;;;;;;5.70;100.00;99916.53;5250315;28;20028;-73
2024/03/02 05:52:20;;;;;;;3.03;1.00;;;;;;;5.70;100.00;99916.53;5254183;28;20501;-73
2024/03/02 05:54:51;;;;;;;6.63;0.75;;;;;;;5.68;100.00;99919.34;5245824;28;20055;-72
2024/03/02 05:57:55;;;;;;;8.68;1.27;;;;;;;5.68;100.00;99918.53;5249773;28;20732;-74
2024/03/02 06:00:24;;;;;;;2.72;1.00;;;;;;;5.78;100.00;99913.09;5248414;28;20052;-74
2024/03/02 06:02:54;;;;;;;4.22;1.00;;;;;;;5.80;100.00;99911.09;5246498;28;20473;-74
2024/03/02 06:05:24;;;;;;;6.45;1.10;;;;;;;5.82;100.00;99920.56;5249334;28;20031;-74
2024/03/02 06:07:55;;;;;;;4.97;0.70;;;;;;;5.84;100.00;99920.44;5247688;28;20028;-74
2024/03/02 06:10:25;;;;;;;9.60;1.13;;;;;;;5.83;100.00;99924.09;5250019;28;20021;-74
2024/03/02 06:12:56;;;;;;;2.72;0.73;;;;;;;5.87;100.00;99923.63;5251298;28;20111;-73
2024/03/02 06:15:26;;;;;;;5.47;1.17;;;;;;;5.86;100.00;99921.09;5243799;28;20033;-74
2024/03/02 06:17:57;;;;;;;7.03;1.10;;;;;;;5.87;100.00;99923.63;5249515;28;20051;-74
2024/03/02 06:20:30;;;;;;;5.68;1.52;;;;;;;5.92;100.00;99931.16;5250783;28;20032;-74
2024/03/02 06:23:01;;;;;;;3.25;1.20;;;;;;;5.89;100.00;99929.63;5249918;28;20028;-74
2024/03/02 06:25:32;;;;;;;4.43;1.08;;;;;;;5.98;100.00;99930.53;5250139;28;20393;-72
2024/03/02 06:28:04;;;;;;;5.47;1.20;;;;;;;6.03;100.00;99932.72;5247422;28;20375;-73
2024/03/02 06:30:34;;;;;;;1.55;0.85;;;;;;;6.04;100.00;99937.06;5247858;28;20029;-73
2024/03/02 06:33:05;;;;;;;7.28;1.08;;;;;;;6.07;100.00;99934.88;5246892;28;20021;-74
2024/03/02 06:35:36;;;;;;;4.60;1.23;;;;;;;6.14;100.00;99933.28;5251095;28;20035;-73
2024/03/02 06:38:07;;;;;;;4.03;1.05;;;;;;;6.17;100.00;99935.59;5250492;28;20028;-73
2024/03/02 06:40:39;;;;;;;6.40;0.88;;;;;;;6.26;100.00;99930.31;5249884;28;20028;-73
2024/03/02 06:43:10;;;;;;;1.77;0.75;;;;;;;6.29;100.00;99930.84;5249249;28;20111;-73
2024/03/02 06:45:40;;;;;;;4.95;1.05;;;;;;;6.28;100.00;99928.34;5264988;28;20108;-72
2024/03/02 06:48:11;;;;;;;5.88;1.23;;;;;;;6.32;100.00;99935.00;5245203;28;20108;-73
2024/03/02 06:50:41;;;;;;;6.00;1.17;;;;;;;6.38;100.00;99940.53;5247721;28;20024;-74
2024/03/02 06:53:12;;;;;;;4.68;1.02;;;;;;;6.38;100.00;99940.53;5252305;28;20090;-72
2024/03/02 06:55:42;;;;;;;2.50;0.85;;;;;;;6.33;100.00;99940.19;5247860;28;20036;-74
2024/03/02 06:58:15;;;;;;;5.07;0.90;;;;;;;6.37;100.00;99946.00;5245990;28;20167;-74
2024/03/02 07:00:45;;;;;;;7.53;3.13;;;;;;;6.42;100.00;99947.19;5249225;28;20017;-73
2024/03/02 07:03:15;;;;;;;5.55;1.05;;;;;;;6.41;100.00;99945.50;5245897;28;20386;-73
2024/03/02 07:05:47;;;;;;;5.65;1.33;;;;;;;6.38;100.00;99945.84;5250531;28;20496;-73
2024/03/02 07:08:18;;;;;;;6.70;1.95;;;;;;;6.45;100.00;99954.84;5238308;28;20024;-74
2024/03/02 07:10:49;;;;;;;8.55;0.85;;;;;;;6.42;100.00;99947.19;5231087;28;20024;-74
2024/03/02 07:13:20;;;;;;;2.22;0.70;;;;;;;6.57;100.00;99955.38;5238208;28;20406;-74
2024/03/02 07:18:37;;;;;;;5.82;1.30;;;;;;;7.13;100.00;99958.31;5238910;28;20453;-74
2024/03/02 07:21:07;;;;;;;6.78;1.50;;;;;;;7.52;100.00;99962.00;5245849;28;20021;-74
2024/03/02 07:23:38;;;;;;;2.13;1.00;;;;;;;7.98;100.00;99959.59;5246426;28;20090;-75
2024/03/02 07:26:08;;;;;;;8.32;1.10;;;;;;;8.46;100.00;99963.13;5245084;28;20017;-74
2024/03/02 07:28:39;;;;;;;3.85;1.30;;;;;;;8.79;100.00;99966.47;5241359;28;20024;-75
2024/03/02 07:31:10;;;;;;;7.43;1.02;;;;;;;8.94;100.00;99966.56;5244041;28;20037;-73
2024/03/02 07:33:43;;;;;;;5.53;1.05;;;;;;;8.80;100.00;99975.31;5241794;28;20527;-74
2024/03/02 07:36:14;;;;;;;3.83;1.35;;;;;;;8.67;100.00;99975.88;5244639;28;20032;-73
2024/03/02 07:38:44;;;;;;;7.78;0.80;;;;;;;8.78;100.00;99974.66;5244628;28;20024;-74
2024/03/02 07:41:15;;;;;;;5.13;0.90;;;;;;;8.89;100.00;99968.09;5242523;28;20039;-74
2024/03/02 07:43:46;;;;;;;2.92;1.17;;;;;;;9.10;100.00;99964.78;5245470;28;20034;-74
2024/03/02 07:46:17;;;;;;;4.30;0.63;;;;;;;9.49;100.00;99976.19;5243753;28;20029;-73
2024/03/02 07:48:48;;;;;;;5.93;0.80;;;;;;;9.80;100.00;99967.19;5246204;28;20017;-74
2024/03/02 07:51:19;;;;;;;4.90;0.85;;;;;;;9.87;100.00;99970.78;5245389;28;20082;-73
2024/03/02 07:53:49;;;;;;;2.33;0.77;;;;;;;10.09;100.00;99969.91;5247416;28;20473;-74
2024/03/02 07:56:22;;;;;;;8.25;0.90;;;;;;;10.09;100.00;99963.69;5245068;28;20036;-74
2024/03/02 07:58:53;;;;;;;4.80;0.85;;;;;;;10.41;100.00;99969.75;5248686;28;20024;-74
2024/03/02 08:01:23;;;;;;;4.47;0.98;;;;;;;10.57;100.00;99954.25;5244176;28;20054;-73
2024/03/02 08:03:55;;;;;;;4.85;1.13;;;;;;;10.70;100.00;99958.97;5245792;28;20507;-74
2024/03/02 08:06:27;;;;;;;4.32;1.02;;;;;;;10.59;100.00;99956.75;5244380;28;20099;-74
2024/03/02 08:09:00;;;;;;;5.45;0.80;;;;;;;10.45;100.00;99971.88;5247517;28;20434;-74
2024/03/02 08:11:31;;;;;;;6.35;1.05;;;;;;;10.31;100.00;99965.47;5245487;28;20723;-74
2024/03/02 08:14:03;;;;;;;3.38;0.70;;;;;;;10.16;100.00;99967.31;5239142;28;20032;-74
2024/03/02 08:16:36;;;;;;;5.43;0.90;;;;;;;10.28;100.00;99973.88;5238307;28;20470;-73
2024/03/02 08:19:08;;;;;;;3.15;0.82;;;;;;;10.45;100.00;99973.72;5243676;28;20509;-74
2024/03/02 08:21:39;;;;;;;1.52;0.73;;;;;;;10.59;100.00;99984.44;5245142;28;20020;-74
2024/03/02 08:24:10;;;;;;;3.38;0.88;;;;;;;10.48;100.00;99979.50;5245233;28;20496;-73
2024/03/02 08:26:44;;;;;;;5.32;0.93;;;;;;;10.77;100.00;99983.19;5245130;28;20029;-74
2024/03/02 08:29:15;;;;;;;2.80;0.95;;;;;;;10.84;100.00;99974.19;5229191;28;20101;-74
2024/03/02 08:31:46;;;;;;;2.60;0.90;;;;;;;10.84;100.00;99970.66;5238992;28;20068;-73
2024/03/02 08:34:17;;;;;;;4.28;1.02;;;;;;;11.01;100.00;99965.91;5252381;28;20020;-74
2024/03/02 08:36:49;;;;;;;7.18;1.13;;;;;;;11.38;100.00;99972.88;5243874;28;20032;-74
2024/03/02 08:39:20;;;;;;;4.60;1.20;;;;;;;11.40;100.00;99968.16;5248587;28;20109;-74
2024/03/02 08:41:51;;;;;;;3.70;1.00;;;;;;;11.31;100.00;99972.00;5252189;28;20078;-74
2024/03/02 08:44:29;;;;;;;6.82;1.58;;;;;;;11.22;100.00;99984.69;5250636;28;20035;-74
2024/03/02 08:47:00;;;;;;;4.10;1.30;;;;;;;11.73;100.00;99989.06;5249237;28;20045;-75
2024/03/02 08:49:33;;;;;;;8.18;1.30;;;;;;;11.67;100.00;99994.22;5250327;28;20028;-74
2024/03/02 08:52:04;;;;;;;5.70;0.95;;;;;;;11.50;100.00;99992.84;5253292;28;20035;-75
2024/03/02 08:54:35;;;;;;;5.75;1.10;;;;;;;11.57;100.00;99991.03;5263789;28;20505;-74
2024/03/02 08:57:09;;;;;;;6.25;1.02;;;;;;;11.79;100.00;99999.88;5247068;28;20107;-74
2024/03/02 08:59:40;;;;;;;3.90;1.13;;;;;;;12.11;100.00;100001.19;5249804;28;20032;-74
2024/03/02 09:02:11;;;;;;;9.45;1.30;;;;;;;12.16;100.00;99998.75;5251141;28;20027;-75
2024/03/02 09:04:47;;;;;;;5.38;1.45;;;;;;;12.08;100.00;100000.75;5250950;28;20025;-74
2024/03/02 09:07:18;;;;;;;3.08;0.93;;;;;;;12.26;100.00;99994.88;5247302;28;20475;-74
2024/03/02 09:09:49;;;;;;;8.00;1.33;;;;;;;12.11;100.00;99995.81;5246081;28;20119;-74
2024/03/02 09:12:19;;;;;;;5.95;1.00;;;;;;;12.23;100.00;99998.78;5244344;28;20019;-75
2024/03/02 09:14:50;;;;;;;4.63;1.27;;;;;;;12.55;100.00;99997.31;5247418;28;20683;-75
2024/03/02 09:17:20;;;;;;;7.28;1.13;;;;;;;13.02;100.00;99995.63;5249812;28;20041;-74
2024/03/02 09:19:52;;;;;;;4.43;0.90;;;;;;;13.20;100.00;100003.09;5251078;28;20082;-75
2024/03/02 09:22:23;;;;;;;5.68;1.40;;;;;;;13.13;100.00;100000.41;5249740;28;20107;-75
2024/03/02 09:24:53;;;;;;;7.10;0.90;;;;;;;13.02;100.00;99995.63;5267610;28;20110;-74
2024/03/02 09:27:24;;;;;;;6.03;1.27;;;;;;;13.34;100.00;99995.91;5247758;28;20016;-74
2024/03/02 09:29:54;;;;;;;4.97;1.05;;;;;;;13.43;100.00;99990.13;5249690;28;20473;-74
2024/03/02 09:32:26;;;;;;;7.47;1.23;;;;;;;12.71;100.00;99993.44;5239165;28;20017;-74
2024/03/02 09:34:58;;;;;;;5.88;0.90;;;;;;;12.45;100.00;99983.41;5249689;28;20405;-74
2024/03/02 09:37:28;;;;;;;5.18;0.85;;;;;;;12.32;100.00;99986.00;5244826;28;20025;-74
2024/03/02 09:39:59;;;;;;;4.35;1.10;;;;;;;12.64;100.00;99987.19;5250583;28;20370;-74
2024/03/02 09:42:30;;;;;;;5.28;0.93;;;;;;;12.68;100.00;99975.81;5250610;28;20036;-74
2024/03/02 09:45:02;;;;;;;5.07;1.10;;;;;;;12.83;100.00;99970.28;5246812;28;20028;-74
2024/03/02 09:47:32;;;;;;;8.60;1.10;;;;;;;12.84;100.00;99968.41;5242170;28;20029;-74
2024/03/02 09:50:03;;;;;;;5.88;1.20;;;;;;;12.83;100.00;99959.53;5251659;28;20111;-74
2024/03/02 09:52:36;;;;;;;9.45;1.50;;;;;;;12.84;100.00;99963.88;5249613;28;20066;-74
2024/03/02 09:55:07;;;;;;;13.00;1.52;;;;;;;12.91;100.00;99967.44;5249615;28;20032;-74
2024/03/02 09:57:37;;;;;;;6.68;1.00;;;;;;;13.03;100.00;99973.03;5245275;28;20033;-74
2024/03/02 10:00:14;;;;;;;6.97;1.10;;;;;;;13.06;100.00;99961.88;5248947;28;20024;-74
2024/03/02 10:02:48;;;;;;;7.20;1.08;;;;;;;13.29;100.00;99960.69;5248659;28;20082;-74
2024/03/02 10:05:28;;;;;;;6.65;1.10;;;;;;;13.20;100.00;99963.56;5247932;28;20036;-75
2024/03/02 10:08:00;;;;;;;8.30;1.45;;;;;;;13.34;100.00;99950.94;5249636;28;20094;-75
2024/03/02 10:10:35;;;;;;;4.80;0.95;;;;;;;13.05;100.00;99956.66;5241341;28;20028;-75
2024/03/02 10:13:07;;;;;;;5.47;1.10;;;;;;;13.38;100.00;99956.75;5249583;28;20036;-75
2024/03/02 10:15:41;;;;;;;10.13;1.20;;;;;;;12.98;100.00;99956.66;5248805;28;20031;-75
2024/03/02 10:18:47;;;;;;;8.95;1.45;;;;;;;12.49;100.00;99952.34;5250073;28;20036;-75
2024/03/02 10:21:35;;;;;;;6.03;1.55;;;;;;;12.18;100.00;99945.59;5261677;28;20504;-75
2024/03/02 10:24:07;;;;;;;6.55;1.33;;;;;;;12.08;100.00;99944.28;5231948;28;20389;-75
2024/03/02 10:26:37;;;;;;;5.88;1.08;;;;;;;12.24;100.00;99951.19;5261341;28;20025;-75
2024/03/02 10:29:12;;;;;;;5.32;1.02;;;;;;;12.85;100.00;99951.22;5247081;28;20024;-74
2024/03/02 10:31:45;;;;;;;9.30;1.00;;;;;;;12.96;100.00;99956.88;5233721;28;20524;-74
2024/03/02 10:34:16;;;;;;;3.60;0.85;;;;;;;12.88;100.00;99950.84;5248875;28;20047;-75
2024/03/02 10:36:47;;;;;;;4.97;1.50;;;;;;;13.09;100.00;99952.53;5249175;28;20151;-75
2024/03/02 10:39:18;;;;;;;11.93;1.35;;;;;;;13.06;100.00;99948.41;5248301;28;20027;-75
2024/03/02 10:41:49;;;;;;;6.40;1.38;;;;;;;12.86;100.00;99956.44;5249079;28;20017;-74
2024/03/02 10:44:22;;;;;;;8.95;1.33;;;;;;;12.79;100.00;99950.19;5250180;28;20072;-75
2024/03/02 10:46:55;;;;;;;9.90;1.48;;;;;;;12.89;100.00;99949.81;5248281;28;20060;-74
2024/03/02 10:49:27;;;;;;;6.30;1.00;;;;;;;12.84;100.00;99946.88;5242655;28;20028;-75
2024/03/02 10:51:59;;;;;;;9.35;1.80;;;;;;;13.08;100.00;99942.81;5248390;28;20565;-75
2024/03/02 10:54:35;;;;;;;9.43;1.70;;;;;;;13.23;100.00;99939.97;5245015;28;20119;-75
2024/03/02 10:57:09;;;;;;;8.80;1.23;;;;;;;12.68;100.00;99938.16;5245883;28;20028;-74
2024/03/02 10:59:52;;;;;;;5.70;1.45;;;;;;;13.03;100.00;99942.59;5265809;28;20028;-75
2024/03/02 11:02:25;;;;;;;9.43;1.08;;;;;;;13.04;100.00;99942.38;5242248;28;20135;-75
2024/03/02 11:04:59;;;;;;;3.30;0.85;;;;;;;13.42;100.00;99939.16;5252538;28;20034;-74
2024/03/02 11:07:31;;;;;;;4.53;0.95;;;;;;;13.10;100.00;99929.97;5247308;28;20028;-74
2024/03/02 11:10:08;;;;;;;9.13;1.55;;;;;;;13.01;100.00;99934.72;5236573;28;20049;-75
2024/03/02 11:12:46;;;;;;;3.90;0.82;;;;;;;12.99;100.00;99931.41;5246183;28;20486;-75
2024/03/02 11:15:19;;;;;;;6.82;1.08;;;;;;;13.63;100.00;99938.94;5246437;28;20032;-74
2024/03/02 11:17:50;;;;;;;6.97;1.05;;;;;;;13.72;100.00;99926.91;5251440;28;20127;-75
2024/03/02 11:20:21;;;;;;;2.40;0.80;;;;;;;13.63;100.00;99930.03;5239901;28;20096;-75
2024/03/02 11:22:55;;;;;;;10.75;1.63;;;;;;;13.74;100.00;99932.09;5246905;28;20032;-74
2024/03/02 11:25:32;;;;;;;7.07;0.73;;;;;;;13.70;100.00;99920.91;5246802;28;20035;-75
2024/03/02 11:28:04;;;;;;;5.78;1.40;;;;;;;13.29;100.00;99912.19;5240792;28;20476;-75
2024/03/02 11:30:37;;;;;;;7.35;1.20;;;;;;;13.29;100.00;99901.44;5247832;28;20028;-75
2024/03/02 11:33:11;;;;;;;4.32;0.93;;;;;;;13.12;100.00;99904.50;5245739;28;20035;-74
2024/03/02 11:35:58;;;;;;;4.07;0.70;;;;;;;13.23;100.00;99891.47;5227599;28;20111;-75
2024/03/02 11:38:32;;;;;;;4.95;1.52;;;;;;;13.63;100.00;99893.13;5242190;28;20036;-75
2024/03/02 11:41:08;;;;;;;6.37;0.97;;;;;;;13.73;100.00;99893.53;5243926;28;20028;-75
2024/03/02 11:43:40;;;;;;;3.28;0.93;;;;;;;13.97;100.00;99891.19;5260925;28;20028;-75
2024/03/02 11:46:10;;;;;;;2.70;0.93;;;;;;;13.59;100.00;99889.19;5248035;28;20032;-75
2024/03/02 11:48:41;;;;;;;6.55;1.10;;;;;;;13.31;100.00;99878.66;5242719;28;20405;-75
2024/03/02 11:51:12;;;;;;;6.75;1.00;;;;;;;13.50;100.00;99876.97;5250013;28;20031;-75
2024/03/02 11:53:45;;;;;;;9.07;1.25;;;;;;;13.34;100.00;99872.00;5248114;28;20081;-75